createdAt,value
2023-07-31T00:01:09.677Z,100.00
2023-07-31T00:03:37.857Z,100.00
2023-07-31T00:06:06.726Z,100.00
2023-07-31T00:08:34.836Z,100.00
2023-07-31T00:11:03.296Z,100.00
2023-07-31T00:13:31.509Z,100.00
2023-07-31T00:16:01.392Z,100.00
2023-07-31T00:18:29.446Z,100.00
2023-07-31T00:20:57.640Z,100.00
2023-07-31T00:23:26.377Z,100.00
2023-07-31T00:25:54.208Z,100.00
2023-07-31T00:28:22.199Z,100.00
2023-07-31T00:30:50.375Z,100.00
2023-07-31T00:33:20.113Z,100.00
2023-07-31T00:35:48.636Z,100.00
2023-07-31T00:38:16.892Z,100.00
2023-07-31T00:40:44.923Z,100.00
2023-07-31T00:43:12.868Z,100.00
2023-07-31T00:45:41.100Z,100.00
2023-07-31T00:48:09.525Z,100.00
2023-07-31T00:50:41.405Z,100.00
2023-07-31T00:53:09.859Z,100.00
2023-07-31T00:55:37.860Z,100.00
2023-07-31T00:58:05.995Z,100.00
2023-07-31T01:00:34.037Z,100.00
2023-07-31T01:03:03.046Z,100.00
2023-07-31T01:05:36.437Z,100.00
2023-07-31T01:08:07.565Z,100.00
2023-07-31T01:10:39.458Z,100.00
2023-07-31T01:13:08.368Z,100.00
2023-07-31T01:15:36.812Z,100.00
2023-07-31T01:18:06.141Z,100.00
2023-07-31T01:20:35.432Z,100.00
2023-07-31T01:23:14.092Z,100.00
2023-07-31T01:25:51.023Z,100.00
2023-07-31T01:28:22.285Z,100.00
2023-07-31T01:30:51.338Z,100.00
2023-07-31T01:33:19.633Z,100.00
2023-07-31T01:35:49.497Z,100.00
2023-07-31T01:38:17.554Z,100.00
2023-07-31T01:40:45.502Z,100.00
2023-07-31T01:43:14.864Z,100.00
2023-07-31T01:45:42.973Z,100.00
2023-07-31T01:48:11.306Z,100.00
2023-07-31T01:50:39.501Z,100.00
2023-07-31T01:53:08.820Z,100.00
2023-07-31T01:55:36.757Z,100.00
2023-07-31T01:58:06.660Z,100.00
2023-07-31T02:00:36.300Z,100.00
2023-07-31T02:03:04.877Z,100.00
2023-07-31T02:05:32.758Z,100.00
2023-07-31T02:08:04.021Z,100.00
2023-07-31T02:10:33.626Z,100.00
2023-07-31T02:13:01.761Z,100.00
2023-07-31T02:15:30.246Z,100.00
2023-07-31T02:18:00.311Z,100.00
2023-07-31T02:20:28.163Z,100.00
2023-07-31T02:22:56.287Z,100.00
2023-07-31T02:25:24.354Z,100.00
2023-07-31T02:27:52.158Z,100.00
2023-07-31T02:30:20.321Z,100.00
2023-07-31T02:32:48.966Z,100.00
2023-07-31T02:35:20.179Z,100.00
2023-07-31T02:37:48.124Z,100.00
2023-07-31T02:40:16.245Z,100.00
2023-07-31T02:42:44.024Z,100.00
2023-07-31T02:45:13.277Z,100.00
2023-07-31T02:47:41.335Z,100.00
2023-07-31T02:50:11.994Z,100.00
2023-07-31T02:52:41.971Z,100.00
2023-07-31T02:55:11.452Z,100.00
2023-07-31T02:57:39.582Z,100.00
2023-07-31T03:00:08.759Z,100.00
2023-07-31T03:02:36.917Z,100.00
2023-07-31T03:05:06.386Z,100.00
2023-07-31T03:07:36.456Z,100.00
2023-07-31T03:10:06.688Z,100.00
2023-07-31T03:12:36.905Z,100.00
2023-07-31T03:15:05.435Z,100.00
2023-07-31T03:17:36.003Z,100.00
2023-07-31T03:20:04.267Z,100.00
2023-07-31T03:22:32.464Z,100.00
2023-07-31T03:25:00.468Z,100.00
2023-07-31T03:27:30.225Z,100.00
2023-07-31T03:29:59.003Z,100.00
2023-07-31T03:32:26.964Z,100.00
2023-07-31T03:34:55.730Z,100.00
2023-07-31T03:37:23.809Z,100.00
2023-07-31T03:39:51.846Z,100.00
2023-07-31T03:42:20.954Z,100.00
2023-07-31T03:44:50.688Z,100.00
2023-07-31T03:47:19.293Z,100.00
2023-07-31T03:49:47.299Z,100.00
2023-07-31T03:52:16.617Z,100.00
2023-07-31T03:54:45.762Z,100.00
2023-07-31T03:57:14.045Z,100.00
2023-07-31T03:59:42.026Z,100.00
2023-07-31T04:02:12.714Z,100.00
2023-07-31T04:04:41.134Z,100.00
2023-07-31T04:07:09.214Z,100.00
2023-07-31T04:09:37.186Z,100.00
2023-07-31T04:12:05.452Z,100.00
2023-07-31T04:14:33.645Z,100.00
2023-07-31T04:17:03.331Z,100.00
2023-07-31T04:19:35.045Z,100.00
2023-07-31T04:22:05.689Z,100.00
2023-07-31T04:24:33.504Z,100.00
2023-07-31T04:27:01.801Z,100.00
2023-07-31T04:29:30.253Z,100.00
2023-07-31T04:31:58.678Z,100.00
2023-07-31T04:34:29.281Z,100.00
2023-07-31T04:36:58.589Z,100.00
2023-07-31T04:39:26.455Z,100.00
2023-07-31T04:41:54.907Z,100.00
2023-07-31T04:44:23.078Z,100.00
2023-07-31T04:46:51.659Z,100.00
2023-07-31T04:49:20.261Z,100.00
2023-07-31T04:51:48.763Z,100.00
2023-07-31T04:54:18.327Z,100.00
2023-07-31T04:56:53.757Z,100.00
2023-07-31T04:59:21.764Z,100.00
2023-07-31T05:01:49.968Z,100.00
2023-07-31T05:04:18.118Z,100.00
2023-07-31T05:06:46.063Z,100.00
2023-07-31T05:09:14.441Z,100.00
2023-07-31T05:11:44.154Z,100.00
2023-07-31T05:14:12.520Z,100.00
2023-07-31T05:16:41.073Z,100.00
2023-07-31T05:19:09.434Z,100.00
2023-07-31T05:21:37.332Z,100.00
2023-07-31T05:24:05.739Z,100.00
2023-07-31T05:26:34.329Z,100.00
2023-07-31T05:29:03.898Z,100.00
2023-07-31T05:31:33.395Z,100.00
2023-07-31T05:34:01.268Z,100.00
2023-07-31T05:36:29.393Z,100.00
2023-07-31T05:38:57.940Z,100.00
2023-07-31T05:41:26.445Z,100.00
2023-07-31T05:43:54.568Z,100.00
2023-07-31T05:46:23.971Z,100.00
2023-07-31T05:48:52.043Z,100.00
2023-07-31T05:51:20.085Z,100.00
2023-07-31T05:53:50.753Z,100.00
2023-07-31T05:56:18.894Z,100.00
2023-07-31T05:58:48.398Z,100.00
2023-07-31T06:01:18.306Z,100.00
2023-07-31T06:03:48.271Z,100.00
2023-07-31T06:06:16.336Z,100.00
2023-07-31T06:08:44.607Z,100.00
2023-07-31T06:11:12.519Z,100.00
2023-07-31T06:13:43.834Z,100.00
2023-07-31T06:16:12.273Z,100.00
2023-07-31T06:18:40.594Z,100.00
2023-07-31T06:21:10.285Z,100.00
2023-07-31T06:23:38.602Z,100.00
2023-07-31T06:26:06.618Z,100.00
2023-07-31T06:28:34.852Z,100.00
2023-07-31T06:31:03.896Z,100.00
2023-07-31T06:33:32.002Z,100.00
2023-07-31T06:36:00.220Z,100.00
2023-07-31T06:38:30.621Z,99.72
2023-07-31T06:40:58.662Z,100.00
2023-07-31T06:43:29.365Z,100.00
2023-07-31T06:45:57.987Z,100.00
2023-07-31T06:48:26.759Z,100.00
2023-07-31T06:50:55.331Z,100.00
2023-07-31T06:53:26.195Z,100.00
2023-07-31T06:55:56.536Z,100.00
2023-07-31T06:58:24.715Z,100.00
2023-07-31T07:00:54.725Z,100.00
2023-07-31T07:03:22.836Z,98.65
2023-07-31T07:05:50.891Z,95.84
2023-07-31T07:08:20.466Z,94.82
2023-07-31T07:10:49.210Z,94.72
2023-07-31T07:13:19.728Z,97.18
2023-07-31T07:15:50.028Z,91.22
2023-07-31T07:18:18.118Z,84.88
2023-07-31T07:20:49.302Z,80.40
2023-07-31T07:23:17.417Z,77.54
2023-07-31T07:25:45.894Z,79.08
2023-07-31T07:28:13.889Z,80.61
2023-07-31T07:30:43.749Z,81.09
2023-07-31T07:33:13.105Z,85.45
2023-07-31T07:35:40.756Z,80.49
2023-07-31T07:38:08.921Z,80.17
2023-07-31T07:40:40.966Z,82.55
2023-07-31T07:43:09.986Z,84.00
2023-07-31T07:45:38.253Z,83.42
2023-07-31T07:48:08.395Z,84.04
2023-07-31T07:50:37.184Z,84.76
2023-07-31T07:53:06.302Z,88.22
2023-07-31T07:55:34.217Z,91.90
2023-07-31T07:58:02.655Z,95.12
2023-07-31T08:00:31.915Z,92.14
2023-07-31T08:03:00.830Z,86.75
2023-07-31T08:05:33.288Z,82.99
2023-07-31T08:08:01.621Z,76.14
2023-07-31T08:10:29.933Z,74.85
2023-07-31T08:13:03.334Z,75.10
2023-07-31T08:15:31.669Z,74.16
2023-07-31T08:17:59.973Z,75.02
2023-07-31T08:20:30.552Z,73.70
2023-07-31T08:25:27.411Z,67.93
2023-07-31T08:27:55.835Z,68.31
2023-07-31T08:30:24.387Z,65.07
2023-07-31T08:32:54.183Z,67.81
2023-07-31T08:35:23.042Z,70.56
2023-07-31T08:37:52.663Z,68.85
2023-07-31T08:40:24.019Z,70.15
2023-07-31T08:42:56.332Z,72.67
2023-07-31T08:45:24.841Z,67.15
2023-07-31T08:47:53.709Z,68.08
2023-07-31T08:50:23.007Z,63.25
2023-07-31T08:52:55.580Z,61.75
2023-07-31T08:55:26.126Z,62.34
2023-07-31T08:57:54.722Z,65.83
2023-07-31T09:00:25.710Z,67.45
2023-07-31T09:02:56.777Z,70.16
2023-07-31T09:05:25.647Z,72.56
2023-07-31T09:07:56.594Z,67.98
2023-07-31T09:10:25.020Z,69.30
2023-07-31T09:12:54.255Z,72.56
2023-07-31T09:15:36.802Z,81.33
2023-07-31T09:18:08.176Z,100.00
2023-07-31T09:20:37.538Z,100.00
2023-07-31T09:23:11.392Z,100.00
2023-07-31T09:25:40.346Z,100.00
2023-07-31T09:28:09.883Z,100.00
2023-07-31T09:30:49.913Z,100.00
2023-07-31T09:33:18.842Z,100.00
2023-07-31T09:35:47.085Z,100.00
2023-07-31T09:38:17.050Z,86.28
2023-07-31T09:40:46.429Z,73.05
2023-07-31T09:43:15.224Z,72.60
2023-07-31T09:45:44.308Z,70.71
2023-07-31T09:48:13.107Z,66.46
2023-07-31T09:50:41.898Z,66.31
2023-07-31T09:53:10.554Z,63.94
2023-07-31T09:55:40.871Z,63.68
2023-07-31T09:58:11.343Z,64.34
2023-07-31T10:00:40.708Z,62.63
2023-07-31T10:03:09.761Z,63.04
2023-07-31T10:05:38.748Z,64.47
2023-07-31T10:08:09.839Z,65.67
2023-07-31T10:10:39.946Z,64.86
2023-07-31T10:13:09.149Z,64.45
2023-07-31T10:15:38.616Z,64.89
2023-07-31T10:18:08.168Z,64.71
2023-07-31T10:20:37.268Z,64.55
2023-07-31T10:23:06.430Z,63.61
2023-07-31T10:25:35.977Z,64.88
2023-07-31T10:28:06.128Z,65.67
2023-07-31T10:30:36.067Z,64.05
2023-07-31T10:33:04.875Z,63.30
2023-07-31T10:35:33.625Z,64.71
2023-07-31T10:38:12.144Z,62.52
2023-07-31T10:40:40.775Z,65.08
2023-07-31T10:43:12.569Z,65.27
2023-07-31T10:45:41.695Z,66.11
2023-07-31T10:48:14.840Z,62.63
2023-07-31T10:50:49.530Z,55.98
2023-07-31T10:53:25.121Z,49.94
2023-07-31T10:55:53.782Z,54.44
2023-07-31T10:58:24.811Z,59.18
2023-07-31T11:00:57.767Z,59.32
2023-07-31T11:03:27.992Z,58.52
2023-07-31T11:06:04.760Z,58.63
2023-07-31T11:08:34.299Z,58.10
2023-07-31T11:11:09.612Z,61.46
2023-07-31T11:13:44.663Z,65.15
2023-07-31T11:16:13.751Z,68.08
2023-07-31T11:18:43.561Z,68.65
2023-07-31T11:21:15.427Z,70.82
2023-07-31T11:23:44.240Z,71.73
2023-07-31T11:26:13.243Z,68.38
2023-07-31T11:28:43.922Z,63.08
2023-07-31T11:31:13.913Z,59.57
2023-07-31T11:33:42.337Z,57.65
2023-07-31T11:36:18.579Z,58.89
2023-07-31T11:38:46.816Z,58.94
2023-07-31T11:41:17.718Z,56.81
2023-07-31T11:43:47.650Z,55.79
2023-07-31T11:46:17.691Z,58.14
2023-07-31T11:48:46.128Z,64.68
2023-07-31T11:51:16.000Z,64.10
2023-07-31T11:53:45.543Z,64.24
2023-07-31T11:56:19.846Z,64.54
2023-07-31T11:58:49.030Z,68.05
2023-07-31T12:01:20.719Z,71.41
2023-07-31T12:03:49.767Z,69.16
2023-07-31T12:06:18.473Z,68.73
2023-07-31T12:08:46.846Z,69.33
2023-07-31T12:11:16.172Z,70.29
2023-07-31T12:13:44.431Z,71.13
2023-07-31T12:16:12.523Z,69.92
2023-07-31T12:18:41.982Z,70.16
2023-07-31T12:21:14.647Z,70.56
2023-07-31T12:23:44.014Z,72.31
2023-07-31T12:26:14.220Z,71.72
2023-07-31T12:28:43.218Z,73.78
2023-07-31T12:31:12.272Z,76.22
2023-07-31T12:33:43.000Z,77.35
2023-07-31T12:36:12.931Z,77.91
2023-07-31T12:38:41.307Z,77.79
2023-07-31T12:41:09.829Z,78.81
2023-07-31T12:43:38.451Z,79.22
2023-07-31T12:46:06.872Z,78.77
2023-07-31T12:48:35.486Z,75.98
2023-07-31T12:51:06.004Z,75.40
2023-07-31T12:53:35.435Z,75.66
2023-07-31T12:56:04.595Z,76.35
2023-07-31T12:58:32.630Z,74.38
2023-07-31T13:01:01.025Z,74.48
2023-07-31T13:03:29.152Z,75.23
2023-07-31T13:05:57.606Z,73.90
2023-07-31T13:08:29.591Z,72.85
2023-07-31T13:10:58.688Z,73.11
2023-07-31T13:13:27.035Z,73.42
2023-07-31T13:15:55.261Z,69.59
2023-07-31T13:18:23.471Z,66.10
2023-07-31T13:20:51.690Z,67.60
2023-07-31T13:23:19.917Z,68.21
2023-07-31T13:25:49.632Z,69.31
2023-07-31T13:28:17.912Z,70.22
2023-07-31T13:30:47.445Z,72.54
2023-07-31T13:33:29.619Z,72.15
2023-07-31T13:36:03.831Z,71.61
2023-07-31T13:38:31.990Z,71.89
2023-07-31T13:41:01.595Z,73.29
2023-07-31T13:43:32.018Z,75.32
2023-07-31T13:46:05.424Z,76.45
2023-07-31T13:48:33.697Z,78.39
2023-07-31T13:51:01.827Z,80.02
2023-07-31T13:53:32.426Z,80.61
2023-07-31T13:56:04.357Z,81.23
2023-07-31T13:58:32.584Z,82.70
2023-07-31T14:01:03.399Z,81.50
2023-07-31T14:03:34.144Z,85.52
2023-07-31T14:06:02.576Z,83.03
2023-07-31T14:08:32.459Z,83.04
2023-07-31T14:11:03.059Z,82.27
2023-07-31T14:13:32.817Z,81.80
2023-07-31T14:16:02.898Z,83.13
2023-07-31T14:18:34.499Z,85.77
2023-07-31T14:21:06.744Z,87.40
2023-07-31T14:23:35.136Z,88.86
2023-07-31T14:26:04.950Z,89.34
2023-07-31T14:28:38.486Z,89.34
2023-07-31T14:31:09.635Z,89.61
2023-07-31T14:33:38.765Z,90.27
2023-07-31T14:36:09.426Z,92.47
2023-07-31T14:38:38.764Z,90.87
2023-07-31T14:41:09.985Z,91.09
2023-07-31T14:43:39.814Z,91.76
2023-07-31T14:46:09.648Z,88.45
2023-07-31T14:48:38.074Z,85.43
2023-07-31T14:51:06.566Z,83.47
2023-07-31T14:53:37.113Z,89.01
2023-07-31T14:56:05.396Z,91.17
2023-07-31T14:58:35.017Z,89.13
2023-07-31T15:01:03.397Z,85.73
2023-07-31T15:03:31.729Z,85.39
2023-07-31T15:06:00.045Z,85.88
2023-07-31T15:08:28.457Z,85.42
2023-07-31T15:10:59.031Z,89.52
2023-07-31T15:13:29.032Z,91.25
2023-07-31T15:15:59.431Z,91.73
2023-07-31T15:18:28.198Z,94.18
2023-07-31T15:20:59.876Z,94.77
2023-07-31T15:23:30.846Z,95.70
2023-07-31T15:25:59.744Z,98.82
2023-07-31T15:28:30.443Z,98.84
2023-07-31T15:31:00.647Z,96.91
2023-07-31T15:33:28.768Z,96.67
2023-07-31T15:35:56.933Z,95.46
2023-07-31T15:38:25.204Z,95.19
2023-07-31T15:40:54.173Z,94.59
2023-07-31T15:43:25.722Z,92.07
2023-07-31T15:45:54.934Z,93.28
2023-07-31T15:48:24.476Z,93.31
2023-07-31T15:50:53.074Z,93.19
2023-07-31T15:53:21.424Z,92.11
2023-07-31T15:55:53.657Z,93.34
2023-07-31T15:58:23.164Z,93.41
2023-07-31T16:00:51.415Z,94.06
2023-07-31T16:03:20.956Z,91.93
2023-07-31T16:05:53.074Z,95.93
2023-07-31T16:08:23.375Z,95.78
2023-07-31T16:10:53.350Z,96.13
2023-07-31T16:13:22.041Z,100.00
2023-07-31T16:15:53.077Z,100.00
2023-07-31T16:18:22.627Z,100.00
2023-07-31T16:20:52.383Z,100.00
2023-07-31T16:23:22.797Z,100.00
2023-07-31T16:25:51.163Z,100.00
2023-07-31T16:28:19.153Z,100.00
2023-07-31T16:30:49.599Z,100.00
2023-07-31T16:33:20.588Z,100.00
2023-07-31T16:35:50.346Z,100.00
2023-07-31T16:38:20.479Z,100.00
2023-07-31T16:40:50.317Z,100.00
2023-07-31T16:43:23.212Z,100.00
2023-07-31T16:45:52.480Z,100.00
2023-07-31T16:48:21.178Z,100.00
2023-07-31T16:50:49.432Z,100.00
2023-07-31T16:53:17.715Z,100.00
2023-07-31T16:55:47.549Z,100.00
2023-07-31T16:58:16.212Z,100.00
2023-07-31T17:00:44.515Z,100.00
2023-07-31T17:03:12.924Z,100.00
2023-07-31T17:05:41.642Z,100.00
2023-07-31T17:08:10.310Z,100.00
2023-07-31T17:10:38.519Z,100.00
2023-07-31T17:13:10.641Z,100.00
2023-07-31T17:15:39.238Z,100.00
2023-07-31T17:20:58.805Z,100.00
2023-07-31T17:23:30.585Z,100.00
2023-07-31T17:26:06.874Z,100.00
2023-07-31T17:28:36.716Z,100.00
2023-07-31T17:31:08.749Z,100.00
2023-07-31T17:33:37.477Z,100.00
2023-07-31T17:36:06.751Z,100.00
2023-07-31T17:38:34.930Z,100.00
2023-07-31T17:41:03.096Z,100.00
2023-07-31T17:46:22.106Z,100.00
2023-07-31T17:48:50.477Z,100.00
2023-07-31T17:51:19.203Z,100.00
2023-07-31T17:53:47.780Z,100.00
2023-07-31T17:56:15.620Z,100.00
2023-07-31T17:58:43.738Z,100.00
2023-07-31T18:01:12.002Z,100.00
2023-07-31T18:03:41.996Z,100.00
2023-07-31T18:06:12.573Z,100.00
2023-07-31T18:08:40.635Z,100.00
2023-07-31T18:11:08.647Z,100.00
2023-07-31T18:13:36.657Z,100.00
2023-07-31T18:16:07.739Z,100.00
2023-07-31T18:18:36.197Z,100.00
2023-07-31T18:21:07.344Z,100.00
2023-07-31T18:29:27.155Z,100.00
2023-07-31T18:31:55.198Z,100.00
2023-07-31T18:34:23.227Z,100.00
2023-07-31T18:36:52.749Z,100.00
2023-07-31T18:39:20.943Z,100.00
2023-07-31T18:41:48.876Z,100.00
2023-07-31T18:44:16.898Z,100.00
2023-07-31T18:46:44.847Z,100.00
2023-07-31T18:49:13.104Z,100.00
2023-07-31T18:51:40.957Z,100.00
2023-07-31T18:54:11.066Z,100.00
2023-07-31T18:56:39.308Z,100.00
2023-07-31T18:59:08.180Z,100.00
2023-07-31T19:01:36.481Z,100.00
2023-07-31T19:04:06.045Z,100.00
2023-07-31T19:06:36.228Z,100.00
2023-07-31T19:09:05.190Z,100.00
2023-07-31T19:11:35.011Z,100.00
2023-07-31T19:14:04.031Z,100.00
2023-07-31T19:16:32.655Z,100.00
2023-07-31T19:19:00.634Z,100.00
2023-07-31T19:21:28.493Z,100.00
2023-07-31T19:23:56.427Z,100.00
2023-07-31T19:26:24.461Z,100.00
2023-07-31T19:28:54.073Z,100.00
2023-07-31T19:31:22.045Z,100.00
2023-07-31T19:33:50.045Z,100.00
2023-07-31T19:36:20.580Z,100.00
2023-07-31T19:38:48.744Z,100.00
2023-07-31T19:41:19.101Z,100.00
2023-07-31T19:43:47.566Z,100.00
2023-07-31T19:46:17.032Z,100.00
2023-07-31T19:48:45.116Z,100.00
2023-07-31T19:51:13.844Z,100.00
2023-07-31T19:53:41.953Z,100.00
2023-07-31T19:56:09.773Z,100.00
2023-07-31T19:58:37.816Z,100.00
2023-07-31T20:01:05.656Z,100.00
2023-07-31T20:03:35.036Z,100.00
2023-07-31T20:06:03.080Z,100.00
2023-07-31T20:08:31.013Z,100.00
2023-07-31T20:11:00.950Z,100.00
2023-07-31T20:13:33.776Z,100.00
2023-07-31T20:16:04.904Z,100.00
2023-07-31T20:18:35.272Z,100.00
2023-07-31T20:21:04.754Z,100.00
2023-07-31T20:23:42.665Z,100.00
2023-07-31T20:26:12.115Z,100.00
2023-07-31T20:28:40.108Z,100.00
2023-07-31T20:31:11.584Z,100.00
2023-07-31T20:33:40.434Z,100.00
2023-07-31T20:36:09.960Z,100.00
2023-07-31T20:38:39.682Z,100.00
2023-07-31T20:41:08.241Z,100.00
2023-07-31T20:43:40.987Z,100.00
2023-07-31T20:46:10.757Z,100.00
2023-07-31T20:48:40.311Z,100.00
2023-07-31T20:51:11.004Z,100.00
2023-07-31T20:53:39.276Z,100.00
2023-07-31T20:56:07.362Z,100.00
2023-07-31T20:58:37.976Z,100.00
2023-07-31T21:01:06.950Z,100.00
2023-07-31T21:03:35.929Z,100.00
2023-07-31T21:06:04.062Z,100.00
2023-07-31T21:08:33.435Z,100.00
2023-07-31T21:11:01.838Z,100.00
2023-07-31T21:13:29.937Z,100.00
2023-07-31T21:16:01.688Z,100.00
2023-07-31T21:18:29.885Z,100.00
2023-07-31T21:20:57.985Z,100.00
2023-07-31T21:23:26.865Z,100.00
2023-07-31T21:25:56.409Z,100.00
2023-07-31T21:28:24.571Z,100.00
2023-07-31T21:30:52.587Z,100.00
2023-07-31T21:33:20.676Z,100.00
2023-07-31T21:35:48.868Z,100.00
2023-07-31T21:38:17.070Z,100.00
2023-07-31T21:40:45.584Z,100.00
2023-07-31T21:43:14.716Z,100.00
2023-07-31T21:45:43.725Z,100.00
2023-07-31T21:48:13.050Z,100.00
2023-07-31T21:50:41.873Z,100.00
2023-07-31T21:53:10.067Z,100.00
2023-07-31T21:55:38.365Z,100.00
2023-07-31T21:58:07.443Z,100.00
2023-07-31T22:00:37.078Z,100.00
2023-07-31T22:03:05.533Z,100.00
2023-07-31T22:05:33.638Z,100.00
2023-07-31T22:08:02.399Z,100.00
2023-07-31T22:10:31.079Z,100.00
2023-07-31T22:12:59.667Z,100.00
2023-07-31T22:15:28.345Z,100.00
2023-07-31T22:17:57.816Z,100.00
2023-07-31T22:20:26.153Z,100.00
2023-07-31T22:22:54.804Z,100.00
2023-07-31T22:25:22.671Z,100.00
2023-07-31T22:27:52.065Z,100.00
2023-07-31T22:30:20.709Z,100.00
2023-07-31T22:32:49.436Z,100.00
2023-07-31T22:35:19.140Z,100.00
2023-07-31T22:37:47.356Z,100.00
2023-07-31T22:40:17.725Z,100.00
2023-07-31T22:42:46.181Z,100.00
2023-07-31T22:45:14.732Z,100.00
2023-07-31T22:47:42.939Z,100.00
2023-07-31T22:50:11.079Z,100.00
2023-07-31T22:52:42.093Z,100.00
2023-07-31T22:55:10.280Z,100.00
2023-07-31T22:57:38.964Z,100.00
2023-07-31T23:00:08.538Z,100.00
2023-07-31T23:02:36.471Z,100.00
2023-07-31T23:05:04.632Z,100.00
2023-07-31T23:07:33.097Z,100.00
2023-07-31T23:10:02.735Z,100.00
2023-07-31T23:12:30.795Z,100.00
2023-07-31T23:14:58.665Z,100.00
2023-07-31T23:17:26.695Z,100.00
2023-07-31T23:19:54.788Z,100.00
2023-07-31T23:22:23.082Z,100.00
2023-07-31T23:24:51.140Z,100.00
2023-07-31T23:27:20.738Z,100.00
2023-07-31T23:29:48.980Z,100.00
2023-07-31T23:32:17.840Z,100.00
2023-07-31T23:34:46.004Z,100.00
2023-07-31T23:37:14.111Z,100.00
2023-07-31T23:39:42.098Z,100.00
2023-07-31T23:42:09.955Z,100.00
2023-07-31T23:44:39.460Z,100.00
2023-07-31T23:47:07.858Z,100.00
2023-07-31T23:49:36.198Z,100.00
2023-07-31T23:52:04.514Z,100.00
2023-07-31T23:54:32.832Z,100.00
2023-07-31T23:57:03.634Z,100.00
2023-07-31T23:59:34.156Z,100.00
